Time;durP1;ratioP1;P1;durP2;ratioP2;P2;SDS_P1;SDS_P2;PMS_P1;PMS_P2;Temp;Humidity;BMP_temperature;BMP_pressure;BME280_temperature;BME280_humidity;BME280_pressure;Samples;Min_cycle;Max_cycle;Signal;HPM_P1;HPM_P2
2021/11/13 00:01:16;;;;;;;14.30;4.40;;;12.30;99.90;;;;;;5027533;28;20471;-84
2021/11/13 00:03:44;;;;;;;5.43;1.80;;;12.30;99.90;;;;;;5021136;28;20448;-86
2021/11/13 00:06:12;;;;;;;9.77;2.75;;;12.40;99.90;;;;;;5027073;28;20072;-85
2021/11/13 00:08:40;;;;;;;18.88;3.10;;;12.40;99.90;;;;;;5026292;28;20041;-85
2021/11/13 00:11:10;;;;;;;15.43;5.05;;;12.40;99.90;;;;;;5021568;28;20060;-86
2021/11/13 00:13:40;;;;;;;17.13;4.13;;;12.30;99.90;;;;;;4999458;28;20042;-85
2021/11/13 00:16:09;;;;;;;19.20;3.63;;;12.40;99.90;;;;;;5058971;28;20041;-87
2021/11/13 00:18:37;;;;;;;9.20;1.98;;;12.40;99.90;;;;;;5045153;28;20049;-85
2021/11/13 00:21:06;;;;;;;11.98;3.03;;;12.30;99.90;;;;;;5031864;28;20059;-86
2021/11/13 00:23:34;;;;;;;11.00;3.63;;;12.30;99.90;;;;;;5031348;28;20045;-86
2021/11/13 00:26:03;;;;;;;12.27;2.75;;;12.20;99.90;;;;;;5016848;28;20045;-86
2021/11/13 00:28:32;;;;;;;10.82;2.60;;;12.20;99.90;;;;;;5031797;28;20049;-86
2021/11/13 00:31:00;;;;;;;10.15;3.17;;;12.10;99.90;;;;;;5016171;28;20056;-86
2021/11/13 00:33:28;;;;;;;16.98;2.70;;;12.00;99.90;;;;;;5035329;28;20747;-85
2021/11/13 00:35:56;;;;;;;14.70;2.60;;;12.00;99.90;;;;;;5000406;28;20051;-85
2021/11/13 00:38:24;;;;;;;6.40;3.33;;;12.00;99.90;;;;;;5032499;28;20056;-85
2021/11/13 00:40:55;;;;;;;11.32;2.78;;;11.90;99.90;;;;;;5033818;28;20044;-85
2021/11/13 00:43:30;;;;;;;16.23;3.35;;;11.80;99.90;;;;;;5019870;28;20049;-86
2021/11/13 00:46:02;;;;;;;12.88;4.18;;;11.80;99.90;;;;;;5038307;28;20053;-86
2021/11/13 00:48:29;;;;;;;9.82;3.08;;;11.70;99.90;;;;;;4996736;28;20053;-86
2021/11/13 00:50:57;;;;;;;11.30;3.25;;;11.70;99.90;;;;;;4993393;28;20049;-87
2021/11/13 00:53:25;;;;;;;10.38;3.67;;;11.70;99.90;;;;;;5011525;28;20044;-85
2021/11/13 00:55:53;;;;;;;9.10;2.53;;;11.60;99.90;;;;;;5029113;28;20499;-86
2021/11/13 00:58:20;;;;;;;10.60;3.78;;;11.60;99.90;;;;;;5048889;28;20057;-84
2021/11/13 01:00:49;;;;;;;17.38;3.88;;;11.60;99.90;;;;;;5025702;28;20045;-86
2021/11/13 01:03:17;;;;;;;9.57;2.10;;;11.60;99.90;;;;;;5067827;28;20059;-86
2021/11/13 01:05:45;;;;;;;10.85;2.78;;;11.60;99.90;;;;;;5032814;28;20063;-86
2021/11/13 01:08:16;;;;;;;12.13;2.90;;;11.50;99.90;;;;;;5043904;28;20053;-86
2021/11/13 01:10:44;;;;;;;18.35;4.80;;;11.50;99.90;;;;;;5032863;28;20045;-85
2021/11/13 01:13:12;;;;;;;13.05;2.63;;;11.50;99.90;;;;;;5038950;28;20057;-86
2021/11/13 01:15:43;;;;;;;8.20;3.00;;;11.50;99.90;;;;;;5009933;28;20041;-85
2021/11/13 01:18:11;;;;;;;7.28;2.38;;;11.40;99.90;;;;;;5030504;28;20059;-85
2021/11/13 01:20:38;;;;;;;9.00;2.83;;;11.40;99.90;;;;;;5048275;28;20068;-86
2021/11/13 01:23:06;;;;;;;4.22;2.30;;;11.50;99.90;;;;;;5026316;28;20618;-86
2021/11/13 01:25:34;;;;;;;10.93;3.03;;;11.40;99.90;;;;;;5029046;28;20059;-86
2021/11/13 01:28:02;;;;;;;9.95;2.60;;;11.40;99.90;;;;;;5013448;28;20412;-84
2021/11/13 01:30:32;;;;;;;14.73;3.10;;;11.40;99.90;;;;;;5014783;28;20507;-86
2021/11/13 01:32:59;;;;;;;11.18;2.70;;;11.30;99.90;;;;;;5030721;28;20050;-85
2021/11/13 01:35:27;;;;;;;8.55;3.15;;;11.30;99.90;;;;;;5013092;28;20056;-87
2021/11/13 01:37:55;;;;;;;5.75;2.22;;;11.30;99.90;;;;;;5025346;28;20114;-85
2021/11/13 01:40:25;;;;;;;10.40;3.78;;;11.30;99.90;;;;;;5027066;28;20037;-86
2021/11/13 01:42:58;;;;;;;7.40;2.20;;;11.20;99.90;;;;;;5007511;28;20053;-87
2021/11/13 01:45:26;;;;;;;4.05;2.78;;;11.30;99.90;;;;;;5018424;28;20057;-86
2021/11/13 01:47:54;;;;;;;8.43;2.20;;;11.20;99.90;;;;;;5005704;28;20052;-86
2021/11/13 01:50:32;;;;;;;13.07;2.42;;;11.20;99.90;;;;;;5028874;28;20519;-85
2021/11/13 01:53:00;;;;;;;14.15;2.83;;;11.20;99.90;;;;;;5022744;28;20516;-86
2021/11/13 01:55:33;;;;;;;11.15;2.70;;;11.10;99.90;;;;;;4996987;28;20060;-87
2021/11/13 01:58:10;;;;;;;5.90;2.70;;;11.10;99.90;;;;;;4994044;28;20057;-87
2021/11/13 02:00:42;;;;;;;9.18;2.83;;;11.20;99.90;;;;;;4977413;28;20125;-86
2021/11/13 02:03:11;;;;;;;6.03;2.45;;;11.20;99.90;;;;;;5015362;28;20375;-86
2021/11/13 02:05:40;;;;;;;12.93;2.70;;;11.20;99.90;;;;;;5029933;28;20385;-87
2021/11/13 02:08:08;;;;;;;7.07;2.83;;;11.30;99.90;;;;;;4997423;28;20049;-86
2021/11/13 02:10:36;;;;;;;18.02;4.68;;;11.30;99.90;;;;;;5013663;28;20068;-86
2021/11/13 02:13:04;;;;;;;9.93;3.28;;;11.40;99.90;;;;;;4999739;28;20081;-86
2021/11/13 02:15:32;;;;;;;10.18;2.47;;;11.40;99.90;;;;;;5009911;28;20493;-86
2021/11/13 02:18:01;;;;;;;18.50;4.53;;;11.40;99.90;;;;;;5019069;28;20057;-86
2021/11/13 02:20:37;;;;;;;10.50;3.78;;;11.50;99.90;;;;;;5009385;28;20068;-89
2021/11/13 02:23:18;;;;;;;10.55;4.05;;;11.50;99.90;;;;;;5009985;28;20045;-86
2021/11/13 02:25:48;;;;;;;7.50;2.38;;;11.50;99.90;;;;;;4976709;28;20053;-85
2021/11/13 02:28:20;;;;;;;5.78;2.92;;;11.50;99.90;;;;;;4993380;28;20088;-86
2021/11/13 02:30:49;;;;;;;12.55;2.90;;;11.50;99.90;;;;;;4982778;28;20048;-86
2021/11/13 02:33:19;;;;;;;11.60;2.97;;;11.50;99.90;;;;;;5016109;28;20048;-87
2021/11/13 02:35:48;;;;;;;8.48;3.22;;;11.50;99.90;;;;;;5006894;28;20050;-87
2021/11/13 02:38:24;;;;;;;10.20;2.67;;;11.50;99.90;;;;;;4661474;28;10000235;-86
2021/11/13 02:40:57;;;;;;;8.35;2.70;;;11.50;99.90;;;;;;4998404;28;20050;-86
2021/11/13 02:43:30;;;;;;;9.57;3.30;;;11.60;99.90;;;;;;5027999;28;20052;-86
2021/11/13 02:46:01;;;;;;;9.23;3.08;;;11.50;99.90;;;;;;4998992;28;20045;-86
2021/11/13 02:48:32;;;;;;;16.13;5.17;;;11.50;99.90;;;;;;5023322;28;20045;-88
2021/11/13 02:51:00;;;;;;;9.77;2.42;;;11.40;99.90;;;;;;5037323;28;20796;-87
2021/11/13 02:53:29;;;;;;;6.43;2.45;;;11.40;99.90;;;;;;5022716;28;20057;-87
2021/11/13 02:55:59;;;;;;;17.42;2.85;;;11.40;99.90;;;;;;4998220;28;20073;-86
2021/11/13 02:58:27;;;;;;;17.00;3.45;;;11.30;99.90;;;;;;4982020;28;20813;-86
2021/11/13 03:01:02;;;;;;;7.97;2.58;;;11.30;99.90;;;;;;4997829;28;20053;-86
2021/11/13 03:03:30;;;;;;;7.88;2.00;;;12.50;99.90;;;;;;4997557;28;20441;-87
2021/11/13 03:05:59;;;;;;;4.15;2.00;;;11.20;99.90;;;;;;5015668;28;20056;-86
2021/11/13 03:08:33;;;;;;;8.02;3.83;;;11.10;99.90;;;;;;5032345;28;20060;-86
2021/11/13 03:11:04;;;;;;;9.48;2.63;;;11.10;99.90;;;;;;5032206;28;20432;-87
2021/11/13 03:13:33;;;;;;;4.93;2.30;;;11.00;99.90;;;;;;5015870;28;20427;-84
2021/11/13 03:16:02;;;;;;;8.15;3.88;;;11.00;99.90;;;;;;5029457;28;20063;-87
2021/11/13 03:18:31;;;;;;;7.85;2.50;;;11.00;99.90;;;;;;4987872;28;20049;-86
2021/11/13 03:21:04;;;;;;;7.78;2.65;;;11.00;99.90;;;;;;4995713;28;20042;-87
2021/11/13 03:23:41;;;;;;;11.35;2.65;;;11.00;99.90;;;;;;4984263;28;20068;-87
2021/11/13 03:26:19;;;;;;;10.85;2.42;;;11.00;99.90;;;;;;5035289;28;20047;-86
2021/11/13 03:29:11;;;;;;;9.32;3.13;;;11.00;99.90;;;;;;5000142;28;20046;-86
2021/11/13 03:31:39;;;;;;;6.35;2.00;;;11.10;99.90;;;;;;5015354;28;20060;-87
2021/11/13 03:34:07;;;;;;;6.25;2.15;;;11.10;99.90;;;;;;5016061;28;20052;-87
2021/11/13 03:36:35;;;;;;;6.30;3.15;;;11.20;99.90;;;;;;5037669;28;20310;-87
2021/11/13 03:39:05;;;;;;;8.77;1.70;;;11.20;99.90;;;;;;5015742;28;20041;-87
2021/11/13 03:41:34;;;;;;;17.33;4.43;;;11.30;99.90;;;;;;5028723;28;20045;-86
2021/11/13 03:44:02;;;;;;;3.72;1.23;;;11.30;99.90;;;;;;5030921;28;20301;-88
2021/11/13 03:46:30;;;;;;;8.82;1.98;;;11.40;99.90;;;;;;5018855;28;20049;-86
2021/11/13 03:48:58;;;;;;;5.88;2.30;;;11.40;99.90;;;;;;5016611;28;20579;-88
2021/11/13 03:51:26;;;;;;;7.43;2.10;;;11.40;99.90;;;;;;5015319;28;20060;-87
2021/11/13 03:53:54;;;;;;;5.53;1.95;;;11.50;99.90;;;;;;5028636;28;20056;-86
2021/11/13 03:56:21;;;;;;;3.83;1.85;;;11.50;99.90;;;;;;5027970;28;20050;-87
2021/11/13 03:58:49;;;;;;;6.93;2.28;;;11.50;99.90;;;;;;4998650;28;20068;-87
2021/11/13 04:01:17;;;;;;;7.40;1.98;;;11.50;99.90;;;;;;5008686;28;20046;-87
2021/11/13 04:03:44;;;;;;;3.05;1.52;;;11.60;99.90;;;;;;4987214;28;20041;-87
2021/11/13 04:06:12;;;;;;;4.35;2.67;;;11.60;99.90;;;;;;5012007;28;20061;-86
2021/11/13 04:08:40;;;;;;;10.43;2.05;;;11.60;99.90;;;;;;5011420;28;20052;-86
2021/11/13 04:11:08;;;;;;;7.13;2.38;;;11.60;99.90;;;;;;5011490;28;20064;-86
2021/11/13 04:13:36;;;;;;;5.32;2.03;;;11.60;99.90;;;;;;4994638;28;20057;-87
2021/11/13 04:16:04;;;;;;;7.60;2.30;;;11.60;99.90;;;;;;5028490;28;20413;-86
2021/11/13 04:18:32;;;;;;;4.78;1.60;;;11.60;99.90;;;;;;5016483;28;20045;-88
2021/11/13 04:21:01;;;;;;;5.35;2.00;;;11.60;99.90;;;;;;5030859;28;20053;-87
2021/11/13 04:23:29;;;;;;;5.07;1.58;;;11.10;99.90;;;;;;4998856;28;20045;-86
2021/11/13 04:25:58;;;;;;;6.93;1.95;;;12.10;99.90;;;;;;4977896;28;20050;-87
2021/11/13 04:28:25;;;;;;;9.85;2.10;;;11.60;99.90;;;;;;5023812;28;20040;-87
2021/11/13 04:30:53;;;;;;;7.75;2.22;;;11.60;99.90;;;;;;5030874;28;20505;-86
2021/11/13 04:33:22;;;;;;;12.20;3.67;;;11.60;99.90;;;;;;5013423;28;20423;-85
2021/11/13 04:38:56;;;;;;;5.47;1.92;;;11.60;99.90;;;;;;4931507;29;20086;-85
2021/11/13 04:41:24;;;;;;;4.85;1.30;;;11.60;99.90;;;;;;4964622;28;20057;-86
2021/11/13 04:43:52;;;;;;;5.00;2.15;;;11.60;99.90;;;;;;5006597;28;20060;-86
2021/11/13 04:46:19;;;;;;;4.65;1.48;;;11.60;99.90;;;;;;5047082;28;20049;-86
2021/11/13 04:48:47;;;;;;;5.28;1.65;;;11.60;99.90;;;;;;5014499;28;20045;-87
2021/11/13 04:51:15;;;;;;;4.63;2.75;;;11.70;99.90;;;;;;5013227;28;20056;-86
2021/11/13 04:53:43;;;;;;;10.30;1.83;;;11.70;99.90;;;;;;5013993;28;20072;-85
2021/11/13 04:56:11;;;;;;;4.53;2.13;;;11.30;99.90;;;;;;4997049;28;20049;-86
2021/11/13 04:58:39;;;;;;;8.20;1.92;;;11.70;99.90;;;;;;5014537;28;20061;-86
2021/11/13 05:01:07;;;;;;;8.48;2.60;;;11.70;99.90;;;;;;4997360;28;20057;-86
2021/11/13 05:03:41;;;;;;;6.15;1.85;;;11.70;99.90;;;;;;5030003;28;20053;-86
2021/11/13 05:06:09;;;;;;;6.18;1.52;;;11.60;99.90;;;;;;4993938;28;20053;-87
2021/11/13 05:08:37;;;;;;;3.95;1.50;;;11.60;99.90;;;;;;4993641;28;20489;-86
2021/11/13 05:11:04;;;;;;;2.97;1.35;;;11.80;99.90;;;;;;5018670;28;20073;-86
2021/11/13 05:13:32;;;;;;;11.20;2.17;;;11.80;99.90;;;;;;5009556;28;20049;-86
2021/11/13 05:16:00;;;;;;;5.57;2.35;;;11.80;99.90;;;;;;5039871;28;20060;-87
2021/11/13 05:18:28;;;;;;;3.60;1.48;;;11.80;99.90;;;;;;5014480;28;20049;-87
2021/11/13 05:20:56;;;;;;;4.32;1.52;;;11.80;99.90;;;;;;5009850;28;20057;-87
2021/11/13 05:23:24;;;;;;;4.18;2.00;;;11.90;99.90;;;;;;5006874;28;20044;-86
2021/11/13 05:25:53;;;;;;;2.58;1.50;;;11.80;99.90;;;;;;5023043;28;20049;-87
2021/11/13 05:28:21;;;;;;;3.83;1.50;;;11.80;99.90;;;;;;5015689;28;20053;-88
2021/11/13 05:30:49;;;;;;;7.65;1.50;;;11.80;99.90;;;;;;4983691;28;20050;-86
2021/11/13 05:33:17;;;;;;;7.65;1.80;;;11.80;99.90;;;;;;5005462;28;20048;-87
2021/11/13 05:35:45;;;;;;;5.22;1.60;;;11.80;99.90;;;;;;5012628;28;20401;-88
2021/11/13 05:38:13;;;;;;;7.78;1.60;;;11.90;99.90;;;;;;4992530;28;20050;-87
2021/11/13 05:40:42;;;;;;;8.18;2.00;;;11.90;99.90;;;;;;4996923;28;20048;-86
2021/11/13 05:43:10;;;;;;;5.43;2.65;;;11.90;99.90;;;;;;5000104;28;20503;-86
2021/11/13 05:45:38;;;;;;;6.03;1.20;;;11.90;99.90;;;;;;5008551;28;20041;-86
2021/11/13 05:48:06;;;;;;;5.63;1.40;;;11.90;99.90;;;;;;4999505;28;20061;-86
2021/11/13 05:50:34;;;;;;;2.15;1.52;;;11.90;99.90;;;;;;4985974;28;20049;-86
2021/11/13 05:53:04;;;;;;;5.65;1.60;;;12.00;99.90;;;;;;5010799;28;20037;-88
2021/11/13 05:55:32;;;;;;;4.50;2.05;;;11.90;99.90;;;;;;5002476;28;20041;-85
2021/11/13 05:58:02;;;;;;;6.13;1.80;;;11.90;99.90;;;;;;5033944;28;20124;-86
2021/11/13 06:00:30;;;;;;;6.50;3.15;;;11.90;99.90;;;;;;5008094;28;20372;-86
2021/11/13 06:02:58;;;;;;;2.95;1.30;;;12.00;99.90;;;;;;5040256;28;20075;-86
2021/11/13 06:05:29;;;;;;;3.95;1.33;;;12.00;99.90;;;;;;5008463;28;20714;-89
2021/11/13 06:07:57;;;;;;;2.20;1.45;;;12.00;99.90;;;;;;4996750;28;20052;-86
2021/11/13 06:10:25;;;;;;;8.05;1.50;;;11.90;99.90;;;;;;5006659;28;20045;-88
2021/11/13 06:12:53;;;;;;;4.25;1.80;;;12.00;99.90;;;;;;5010075;28;20053;-84
2021/11/13 06:15:22;;;;;;;5.40;1.40;;;12.00;99.90;;;;;;5012093;28;20057;-87
2021/11/13 06:17:50;;;;;;;3.80;1.35;;;12.00;99.90;;;;;;5024237;28;20041;-88
2021/11/13 06:20:19;;;;;;;5.80;1.30;;;11.90;99.90;;;;;;5023692;28;20053;-87
2021/11/13 06:22:47;;;;;;;2.45;1.88;;;12.00;99.90;;;;;;5016429;28;20185;-88
2021/11/13 06:25:16;;;;;;;4.72;1.60;;;11.90;99.90;;;;;;5018641;28;20053;-88
2021/11/13 06:27:44;;;;;;;6.63;2.22;;;11.90;99.90;;;;;;5033674;28;20044;-86
2021/11/13 06:30:17;;;;;;;3.40;1.73;;;12.00;99.90;;;;;;5033901;28;20049;-87
2021/11/13 06:32:47;;;;;;;4.40;1.52;;;12.00;99.90;;;;;;5002744;28;20049;-88
2021/11/13 06:35:18;;;;;;;4.32;1.80;;;11.90;99.90;;;;;;5016693;28;20121;-87
2021/11/13 06:37:49;;;;;;;7.18;2.33;;;11.90;99.90;;;;;;5002944;28;20056;-86
2021/11/13 06:40:23;;;;;;;2.95;1.70;;;11.90;99.90;;;;;;5009677;28;20519;-86
2021/11/13 06:42:51;;;;;;;5.90;1.17;;;11.90;99.90;;;;;;5012562;28;20068;-85
2021/11/13 06:45:20;;;;;;;5.15;1.67;;;11.90;99.90;;;;;;5027280;28;20504;-86
2021/11/13 06:47:54;;;;;;;4.30;1.70;;;11.80;99.90;;;;;;5011391;28;20045;-86
2021/11/13 06:50:22;;;;;;;3.95;2.20;;;11.90;99.90;;;;;;5030495;28;20052;-86
2021/11/13 06:52:49;;;;;;;4.18;1.38;;;11.80;99.90;;;;;;5013908;28;20049;-86
2021/11/13 06:55:17;;;;;;;7.72;1.73;;;11.80;99.90;;;;;;5029372;28;20057;-85
2021/11/13 06:57:45;;;;;;;2.22;1.30;;;11.70;99.90;;;;;;5012075;28;20053;-85
2021/11/13 07:00:16;;;;;;;2.47;1.25;;;11.70;99.90;;;;;;5009834;28;20515;-86
2021/11/13 07:02:45;;;;;;;7.38;1.75;;;11.70;99.90;;;;;;5038030;28;20057;-85
2021/11/13 07:05:17;;;;;;;4.22;3.03;;;11.70;99.90;;;;;;5023043;28;20519;-86
2021/11/13 07:07:45;;;;;;;25.55;3.20;;;11.60;99.90;;;;;;5011052;28;20057;-86
2021/11/13 07:10:15;;;;;;;2.40;1.50;;;11.60;99.90;;;;;;5028411;28;20053;-86
2021/11/13 07:12:45;;;;;;;4.78;1.42;;;11.70;99.90;;;;;;4994450;28;20069;-85
2021/11/13 07:15:15;;;;;;;9.32;1.65;;;11.70;99.90;;;;;;5001316;28;20423;-85
2021/11/13 07:17:43;;;;;;;5.18;1.27;;;11.70;99.90;;;;;;5024002;28;20052;-85
2021/11/13 07:20:12;;;;;;;5.03;1.48;;;11.70;99.90;;;;;;4993908;28;20052;-86
2021/11/13 07:22:41;;;;;;;5.63;1.75;;;11.70;99.90;;;;;;5000489;28;20062;-84
2021/11/13 07:25:13;;;;;;;5.55;1.52;;;11.70;99.90;;;;;;5011096;28;20049;-86
2021/11/13 07:27:45;;;;;;;11.15;1.65;;;11.70;99.90;;;;;;5023058;28;20068;-85
2021/11/13 07:30:16;;;;;;;8.15;2.78;;;11.70;99.90;;;;;;5016766;28;20300;-85
2021/11/13 07:32:45;;;;;;;4.38;1.58;;;11.80;99.90;;;;;;5013097;28;20049;-86
2021/11/13 07:35:13;;;;;;;4.45;1.60;;;11.80;99.90;;;;;;5027417;28;20045;-85
2021/11/13 07:37:41;;;;;;;6.53;1.77;;;11.80;99.90;;;;;;4643843;28;10000865;-85
2021/11/13 07:40:09;;;;;;;4.32;1.35;;;11.80;99.90;;;;;;5028427;28;21004;-86
2021/11/13 07:42:37;;;;;;;4.10;1.48;;;11.80;99.90;;;;;;5037617;28;20053;-85
2021/11/13 07:45:07;;;;;;;5.22;1.50;;;11.80;99.90;;;;;;5017228;28;20079;-86
2021/11/13 07:47:37;;;;;;;4.22;1.27;;;11.80;99.90;;;;;;5034145;28;20486;-87
2021/11/13 07:50:05;;;;;;;6.90;1.70;;;11.90;99.90;;;;;;5024081;28;20045;-84
2021/11/13 07:52:32;;;;;;;6.25;2.05;;;11.90;99.90;;;;;;5045504;28;20547;-85
2021/11/13 07:55:00;;;;;;;4.00;1.38;;;11.90;99.90;;;;;;5023790;28;20048;-86
2021/11/13 07:57:29;;;;;;;2.33;1.65;;;11.90;99.90;;;;;;5027058;28;20068;-85
2021/11/13 07:59:57;;;;;;;6.55;2.72;;;11.90;99.90;;;;;;5041094;28;20042;-86
2021/11/13 08:02:25;;;;;;;6.60;2.90;;;11.90;99.90;;;;;;5051773;28;20038;-86
2021/11/13 08:04:54;;;;;;;9.20;2.33;;;11.90;99.90;;;;;;5049514;28;20045;-86
2021/11/13 08:07:22;;;;;;;7.47;2.40;;;12.00;99.90;;;;;;5032664;28;20515;-86
2021/11/13 08:09:54;;;;;;;8.90;2.65;;;12.00;99.90;;;;;;5015176;28;20050;-86
2021/11/13 08:12:22;;;;;;;6.47;1.80;;;12.00;99.90;;;;;;5029047;28;20147;-85
2021/11/13 08:14:49;;;;;;;4.13;1.63;;;12.10;99.90;;;;;;5016209;28;20060;-86
2021/11/13 08:17:17;;;;;;;6.72;1.70;;;12.00;99.90;;;;;;5023379;28;20052;-86
2021/11/13 08:19:45;;;;;;;7.28;2.05;;;12.10;99.90;;;;;;5021206;28;20413;-87
2021/11/13 08:22:13;;;;;;;4.25;1.98;;;12.10;99.90;;;;;;5055166;28;20059;-86
2021/11/13 08:24:41;;;;;;;9.63;2.15;;;12.10;99.90;;;;;;5039070;28;20414;-86
2021/11/13 08:27:10;;;;;;;5.95;2.70;;;12.20;99.90;;;;;;5022241;28;20041;-86
2021/11/13 08:29:40;;;;;;;6.97;1.77;;;12.20;99.90;;;;;;5037604;28;20044;-86
2021/11/13 08:32:18;;;;;;;9.25;2.28;;;11.90;99.90;;;;;;5069132;28;20025;-86
2021/11/13 08:34:48;;;;;;;8.82;2.72;;;12.20;99.90;;;;;;5068968;22;20056;-81
2021/11/13 08:37:20;;;;;;;4.53;1.70;;;12.20;99.90;;;;;;5042172;28;20055;-83
2021/11/13 08:40:11;;;;;;;3.63;1.92;;;11.70;99.90;;;;;;5047384;28;20834;-84
2021/11/13 08:42:44;;;;;;;14.88;2.25;;;12.30;99.90;;;;;;5047899;28;20057;-82
2021/11/13 08:45:25;;;;;;;6.03;1.88;;;12.00;99.90;;;;;;5029523;28;20052;-82
2021/11/13 08:48:20;;;;;;;11.10;3.20;;;12.40;99.90;;;;;;5041459;28;20055;-85
2021/11/13 08:50:52;;;;;;;6.82;1.80;;;12.30;99.90;;;;;;5063627;28;20062;-82
2021/11/13 08:53:23;;;;;;;10.93;2.55;;;12.40;99.90;;;;;;5041462;28;20052;-85
2021/11/13 08:56:18;;;;;;;8.63;2.63;;;12.40;99.90;;;;;;5046445;28;20052;-82
2021/11/13 08:58:47;;;;;;;6.80;2.00;;;11.20;99.90;;;;;;5004139;28;20060;-83
2021/11/13 09:01:41;;;;;;;7.25;2.58;;;12.40;99.90;;;;;;5026932;28;20052;-84
2021/11/13 09:04:36;;;;;;;14.35;2.78;;;11.00;99.90;;;;;;5024520;28;20037;-80
2021/11/13 09:07:06;;;;;;;8.75;2.55;;;12.40;99.90;;;;;;5016812;28;20057;-80
2021/11/13 09:09:38;;;;;;;9.55;3.35;;;12.40;99.90;;;;;;5036296;28;20047;-77
2021/11/13 09:12:12;;;;;;;3.78;2.13;;;12.50;99.90;;;;;;5032971;28;20211;-80
2021/11/13 09:14:40;;;;;;;8.32;2.88;;;12.50;99.90;;;;;;5041711;28;20045;-79
2021/11/13 09:17:12;;;;;;;16.80;3.67;;;12.50;99.90;;;;;;5057941;28;20049;-79
2021/11/13 09:19:41;;;;;;;8.77;3.13;;;12.50;99.90;;;;;;5037537;28;20046;-79
2021/11/13 09:22:09;;;;;;;4.78;2.28;;;12.50;99.90;;;;;;5010242;28;20046;-80
2021/11/13 09:24:37;;;;;;;7.95;3.28;;;12.50;99.90;;;;;;5060582;28;20041;-79
2021/11/13 09:27:06;;;;;;;6.13;2.25;;;12.50;99.90;;;;;;5037673;28;20061;-81
2021/11/13 09:29:38;;;;;;;15.48;3.03;;;12.50;99.90;;;;;;5028692;28;20044;-83
2021/11/13 09:32:08;;;;;;;15.77;2.50;;;12.50;99.90;;;;;;5021604;28;20044;-82
2021/11/13 09:34:36;;;;;;;7.70;2.40;;;12.60;99.90;;;;;;5041083;28;20514;-82
2021/11/13 09:37:05;;;;;;;6.07;2.33;;;12.60;99.90;;;;;;5023401;28;20068;-78
2021/11/13 09:39:34;;;;;;;9.82;2.53;;;12.60;99.90;;;;;;5028656;28;20051;-78
2021/11/13 09:42:08;;;;;;;8.80;2.40;;;12.60;99.90;;;;;;5045990;28;20064;-78
2021/11/13 09:44:43;;;;;;;8.73;2.20;;;11.40;99.90;;;;;;5059269;28;20037;-79
2021/11/13 09:47:13;;;;;;;13.95;3.47;;;12.70;99.90;;;;;;5026973;28;20057;-79
2021/11/13 09:49:42;;;;;;;2.80;1.92;;;12.70;99.90;;;;;;5025072;28;20037;-78
2021/11/13 09:52:15;;;;;;;9.38;2.63;;;12.80;99.90;;;;;;5008937;28;20406;-79
2021/11/13 09:54:44;;;;;;;9.57;3.45;;;12.80;99.90;;;;;;5000184;28;20055;-79
2021/11/13 09:57:20;;;;;;;10.43;4.13;;;12.90;99.90;;;;;;5040201;28;20056;-80
2021/11/13 09:59:49;;;;;;;11.63;2.75;;;12.90;99.90;;;;;;5059211;28;20047;-84
2021/11/13 10:02:20;;;;;;;16.17;3.03;;;12.90;99.90;;;;;;5061473;28;20047;-79
2021/11/13 10:04:48;;;;;;;7.57;2.10;;;13.00;99.90;;;;;;5042910;28;20044;-81
2021/11/13 10:07:17;;;;;;;6.35;1.95;;;13.00;99.90;;;;;;5004785;28;20052;-80
2021/11/13 10:09:50;;;;;;;5.28;2.67;;;13.00;99.90;;;;;;5022827;28;20051;-81
2021/11/13 10:12:35;;;;;;;8.38;2.22;;;13.00;99.90;;;;;;5038978;28;20052;-79
2021/11/13 10:15:27;;;;;;;9.07;3.53;;;13.10;99.90;;;;;;5044435;28;20051;-80
2021/11/13 10:18:15;;;;;;;17.15;4.07;;;13.20;99.90;;;;;;5041722;28;20052;-77
2021/11/13 10:21:10;;;;;;;4.93;2.10;;;13.20;99.90;;;;;;5024423;28;20063;-78
2021/11/13 10:23:48;;;;;;;12.35;3.70;;;13.30;99.90;;;;;;5045739;28;20045;-79
2021/11/13 10:26:25;;;;;;;10.33;3.17;;;13.40;99.90;;;;;;5058139;28;20041;-81
2021/11/13 10:29:04;;;;;;;9.98;3.03;;;13.40;99.90;;;;;;5043188;28;20045;-80
2021/11/13 10:31:36;;;;;;;8.75;3.10;;;13.40;99.90;;;;;;5056337;28;20415;-81
2021/11/13 10:34:07;;;;;;;5.60;2.15;;;13.40;99.90;;;;;;5053316;28;20041;-83
2021/11/13 10:36:38;;;;;;;7.25;2.70;;;13.40;99.90;;;;;;5009787;28;20057;-80
2021/11/13 10:39:10;;;;;;;19.10;2.65;;;13.40;99.90;;;;;;5014705;28;20056;-79
2021/11/13 10:41:51;;;;;;;9.18;2.95;;;13.40;99.90;;;;;;4998716;28;20057;-81
2021/11/13 10:44:30;;;;;;;8.30;3.85;;;13.40;99.90;;;;;;5036010;28;20064;-82
2021/11/13 10:47:10;;;;;;;8.38;2.97;;;13.50;99.90;;;;;;5020527;28;20038;-80
2021/11/13 10:49:38;;;;;;;9.98;2.40;;;13.50;99.90;;;;;;5029589;28;20053;-82
2021/11/13 10:52:08;;;;;;;8.75;3.85;;;13.50;99.90;;;;;;5010018;28;20053;-78
2021/11/13 10:54:42;;;;;;;7.15;1.77;;;13.50;99.90;;;;;;4988997;28;20061;-79
2021/11/13 10:57:14;;;;;;;10.95;2.60;;;13.50;99.90;;;;;;4987166;28;20067;-80
2021/11/13 10:59:43;;;;;;;7.40;2.38;;;13.50;99.90;;;;;;5025027;23;20054;-86
2021/11/13 11:02:16;;;;;;;4.05;2.00;;;14.60;99.90;;;;;;5005796;28;20053;-85
2021/11/13 11:04:46;;;;;;;6.95;2.28;;;13.40;99.90;;;;;;5043396;28;20045;-85
2021/11/13 11:07:25;;;;;;;7.60;2.33;;;13.40;99.90;;;;;;4981558;28;20055;-85
2021/11/13 11:10:01;;;;;;;6.50;2.47;;;13.40;99.90;;;;;;5036295;28;20057;-86
2021/11/13 11:12:31;;;;;;;8.80;2.38;;;13.40;99.90;;;;;;5022225;28;20049;-86
2021/11/13 11:15:00;;;;;;;16.05;2.88;;;13.40;99.90;;;;;;5007872;28;20495;-86
2021/11/13 11:17:30;;;;;;;6.00;2.47;;;13.50;99.90;;;;;;5029562;28;20049;-84
2021/11/13 11:20:03;;;;;;;8.10;2.88;;;13.50;99.90;;;;;;5023603;28;20045;-86
2021/11/13 11:22:31;;;;;;;9.27;1.88;;;13.50;99.90;;;;;;5040476;28;20368;-85
2021/11/13 11:25:03;;;;;;;6.03;1.73;;;13.50;99.90;;;;;;5013863;28;20037;-86
2021/11/13 11:27:35;;;;;;;5.70;2.00;;;13.50;99.90;;;;;;5010314;28;20052;-86
2021/11/13 11:30:11;;;;;;;10.38;2.20;;;13.50;99.90;;;;;;5025124;28;20053;-86
2021/11/13 11:32:42;;;;;;;13.82;2.47;;;13.50;99.90;;;;;;5039375;28;20060;-85
2021/11/13 11:35:12;;;;;;;8.32;2.20;;;13.50;99.90;;;;;;4984730;28;20053;-84
2021/11/13 11:37:42;;;;;;;7.05;2.28;;;13.50;99.90;;;;;;5023725;28;20065;-85
2021/11/13 11:40:13;;;;;;;3.63;1.52;;;13.50;99.90;;;;;;5031763;28;20041;-84
2021/11/13 11:42:44;;;;;;;;;;;13.50;99.90;;;;;;5040953;28;20064;-84
2021/11/13 11:45:15;;;;;;;2.25;1.25;;;13.50;99.90;;;;;;5044503;28;19932;-84
2021/11/13 11:47:47;;;;;;;10.40;1.80;;;13.50;99.90;;;;;;5042316;28;20052;-85
2021/11/13 11:50:15;;;;;;;;;;;13.50;99.90;;;;;;5016623;28;20061;-85
2021/11/13 11:52:44;;;;;;;5.43;1.77;;;12.40;99.90;;;;;;5043445;28;19929;-86
2021/11/13 11:55:14;;;;;;;7.45;2.00;;;13.50;99.90;;;;;;5025067;28;20507;-85
2021/11/13 11:57:44;;;;;;;8.30;2.83;;;13.50;99.90;;;;;;5038393;28;20041;-86
2021/11/13 12:00:16;;;;;;;3.20;1.50;;;13.50;99.90;;;;;;5036397;28;20064;-85
2021/11/13 12:02:54;;;;;;;15.30;2.85;;;13.50;99.90;;;;;;5045171;28;20051;-84
2021/11/13 12:05:29;;;;;;;4.88;1.70;;;13.50;99.90;;;;;;5060598;28;20048;-84
2021/11/13 12:07:59;;;;;;;6.88;1.80;;;13.50;99.90;;;;;;5023563;28;20055;-85
2021/11/13 12:10:29;;;;;;;3.30;1.83;;;13.40;99.90;;;;;;5061872;28;20044;-85
2021/11/13 12:13:04;;;;;;;11.33;1.50;;;13.50;99.90;;;;;;5056933;28;20037;-86
2021/11/13 12:15:45;;;;;;;5.55;1.67;;;13.40;99.90;;;;;;5062062;28;20047;-85
2021/11/13 12:18:19;;;;;;;;;;;13.50;99.90;;;;;;5059403;28;20054;-86
2021/11/13 12:21:08;;;;;;;7.28;2.83;;;13.60;99.90;;;;;;5024981;28;19924;-85
2021/11/13 12:23:39;;;;;;;6.35;2.70;;;13.90;99.90;;;;;;5042817;28;20048;-86
2021/11/13 12:26:10;;;;;;;7.38;1.70;;;13.40;99.90;;;;;;5029829;28;20056;-85
2021/11/13 12:28:59;;;;;;;3.67;2.15;;;13.40;99.90;;;;;;5022855;28;20079;-86
2021/11/13 12:31:36;;;;;;;6.43;2.67;;;13.40;99.90;;;;;;5039186;28;20059;-85
2021/11/13 12:34:08;;;;;;;9.27;2.15;;;13.40;99.90;;;;;;5033999;28;20041;-85
2021/11/13 12:36:57;;;;;;;10.07;2.03;;;13.40;99.90;;;;;;5063473;28;20055;-85
2021/11/13 12:39:26;;;;;;;8.73;1.85;;;13.40;99.90;;;;;;5068358;28;21542;-84
2021/11/13 12:42:07;;;;;;;10.73;2.63;;;13.30;99.90;;;;;;5026818;28;20045;-84
2021/11/13 12:44:38;;;;;;;3.10;2.08;;;13.30;99.90;;;;;;5046269;28;20059;-86
2021/11/13 12:47:07;;;;;;;3.75;1.67;;;13.30;99.90;;;;;;5044502;28;20044;-85
2021/11/13 12:50:06;;;;;;;5.57;1.83;;;13.30;99.90;;;;;;5027548;28;20527;-84
2021/11/13 12:52:51;;;;;;;19.70;3.55;;;13.20;99.90;;;;;;5022825;28;20055;-85
2021/11/13 12:55:24;;;;;;;5.90;1.73;;;13.30;99.90;;;;;;5023387;28;20052;-85
2021/11/13 12:58:04;;;;;;;11.52;2.92;;;13.30;99.90;;;;;;5046474;28;20552;-86
2021/11/13 13:00:37;;;;;;;7.50;1.75;;;13.30;99.90;;;;;;5043214;28;20638;-86
2021/11/13 13:03:14;;;;;;;7.97;2.40;;;13.30;99.90;;;;;;5041304;28;20041;-87
2021/11/13 13:05:44;;;;;;;5.05;1.98;;;13.30;99.90;;;;;;5059055;28;20354;-85
2021/11/13 13:08:21;;;;;;;6.55;2.63;;;13.30;99.90;;;;;;5057865;28;20048;-84